sensor_id;sensor_type;location;lat;lon;timestamp;P1;durP1;ratioP1;P2;durP2;ratioP2
39486;SDS011;25173;50.430;18.926;2024-01-10T00:02:43;674.38;;;350.30;;
39486;SDS011;25173;50.430;18.926;2024-01-10T00:05:44;734.78;;;399.10;;
39486;SDS011;25173;50.430;18.926;2024-01-10T00:08:44;759.10;;;415.05;;
39486;SDS011;25173;50.430;18.926;2024-01-10T00:11:45;806.35;;;433.00;;
39486;SDS011;25173;50.430;18.926;2024-01-10T00:14:46;836.47;;;459.15;;
39486;SDS011;25173;50.430;18.926;2024-01-10T00:17:46;805.50;;;438.70;;
39486;SDS011;25173;50.430;18.926;2024-01-10T00:20:47;709.00;;;374.58;;
39486;SDS011;25173;50.430;18.926;2024-01-10T00:23:48;668.35;;;349.17;;
39486;SDS011;25173;50.430;18.926;2024-01-10T00:26:48;580.30;;;290.52;;
39486;SDS011;25173;50.430;18.926;2024-01-10T00:29:49;542.85;;;262.75;;
39486;SDS011;25173;50.430;18.926;2024-01-10T00:32:51;538.03;;;263.55;;
39486;SDS011;25173;50.430;18.926;2024-01-10T00:35:52;528.15;;;253.93;;
39486;SDS011;25173;50.430;18.926;2024-01-10T00:38:53;528.88;;;254.98;;
39486;SDS011;25173;50.430;18.926;2024-01-10T00:41:53;522.05;;;252.30;;
39486;SDS011;25173;50.430;18.926;2024-01-10T00:44:54;543.90;;;266.15;;
39486;SDS011;25173;50.430;18.926;2024-01-10T00:47:54;553.75;;;276.30;;
39486;SDS011;25173;50.430;18.926;2024-01-10T00:50:55;545.88;;;270.63;;
39486;SDS011;25173;50.430;18.926;2024-01-10T00:53:55;522.63;;;261.58;;
39486;SDS011;25173;50.430;18.926;2024-01-10T00:56:56;532.35;;;265.50;;
39486;SDS011;25173;50.430;18.926;2024-01-10T00:59:56;524.33;;;251.18;;
39486;SDS011;25173;50.430;18.926;2024-01-10T01:02:57;551.85;;;260.95;;
39486;SDS011;25173;50.430;18.926;2024-01-10T01:05:58;539.08;;;259.92;;
39486;SDS011;25173;50.430;18.926;2024-01-10T01:08:58;529.45;;;248.10;;
39486;SDS011;25173;50.430;18.926;2024-01-10T01:11:59;494.50;;;235.25;;
39486;SDS011;25173;50.430;18.926;2024-01-10T01:14:59;489.90;;;237.80;;
39486;SDS011;25173;50.430;18.926;2024-01-10T01:18:00;500.42;;;241.23;;
39486;SDS011;25173;50.430;18.926;2024-01-10T01:21:01;513.22;;;245.88;;
39486;SDS011;25173;50.430;18.926;2024-01-10T01:24:02;542.60;;;247.02;;
39486;SDS011;25173;50.430;18.926;2024-01-10T01:27:03;547.40;;;264.40;;
39486;SDS011;25173;50.430;18.926;2024-01-10T01:30:04;477.70;;;229.50;;
39486;SDS011;25173;50.430;18.926;2024-01-10T01:33:06;523.97;;;251.68;;
39486;SDS011;25173;50.430;18.926;2024-01-10T01:36:06;501.40;;;238.52;;
39486;SDS011;25173;50.430;18.926;2024-01-10T01:39:07;440.30;;;215.10;;
39486;SDS011;25173;50.430;18.926;2024-01-10T01:42:07;416.45;;;199.68;;
39486;SDS011;25173;50.430;18.926;2024-01-10T01:45:09;437.65;;;209.98;;
39486;SDS011;25173;50.430;18.926;2024-01-10T01:48:10;494.20;;;237.40;;
39486;SDS011;25173;50.430;18.926;2024-01-10T01:51:10;568.72;;;275.90;;
39486;SDS011;25173;50.430;18.926;2024-01-10T01:54:13;544.80;;;250.10;;
39486;SDS011;25173;50.430;18.926;2024-01-10T01:57:14;559.90;;;263.17;;
39486;SDS011;25173;50.430;18.926;2024-01-10T02:00:15;500.98;;;235.15;;
39486;SDS011;25173;50.430;18.926;2024-01-10T02:03:15;475.20;;;222.82;;
39486;SDS011;25173;50.430;18.926;2024-01-10T02:06:16;463.02;;;220.43;;
39486;SDS011;25173;50.430;18.926;2024-01-10T02:09:17;479.05;;;223.70;;
39486;SDS011;25173;50.430;18.926;2024-01-10T02:12:18;482.08;;;221.25;;
39486;SDS011;25173;50.430;18.926;2024-01-10T02:15:18;477.48;;;227.23;;
39486;SDS011;25173;50.430;18.926;2024-01-10T02:18:19;455.35;;;217.90;;
39486;SDS011;25173;50.430;18.926;2024-01-10T02:21:20;470.10;;;220.73;;
39486;SDS011;25173;50.430;18.926;2024-01-10T02:24:22;452.42;;;210.05;;
39486;SDS011;25173;50.430;18.926;2024-01-10T02:27:22;478.42;;;229.75;;
39486;SDS011;25173;50.430;18.926;2024-01-10T02:30:23;424.40;;;198.18;;
39486;SDS011;25173;50.430;18.926;2024-01-10T02:33:23;418.75;;;197.68;;
39486;SDS011;25173;50.430;18.926;2024-01-10T02:36:24;491.05;;;229.27;;
39486;SDS011;25173;50.430;18.926;2024-01-10T02:39:24;529.38;;;252.50;;
39486;SDS011;25173;50.430;18.926;2024-01-10T02:42:26;564.65;;;287.52;;
39486;SDS011;25173;50.430;18.926;2024-01-10T02:45:28;529.20;;;259.83;;
39486;SDS011;25173;50.430;18.926;2024-01-10T02:48:29;527.63;;;256.20;;
39486;SDS011;25173;50.430;18.926;2024-01-10T02:51:31;496.55;;;231.07;;
39486;SDS011;25173;50.430;18.926;2024-01-10T02:54:31;430.95;;;198.43;;
39486;SDS011;25173;50.430;18.926;2024-01-10T02:57:32;430.48;;;197.25;;
39486;SDS011;25173;50.430;18.926;2024-01-10T03:00:32;491.08;;;229.57;;
39486;SDS011;25173;50.430;18.926;2024-01-10T03:03:33;455.05;;;215.75;;
39486;SDS011;25173;50.430;18.926;2024-01-10T03:06:33;399.15;;;191.10;;
39486;SDS011;25173;50.430;18.926;2024-01-10T03:09:34;420.27;;;197.70;;
39486;SDS011;25173;50.430;18.926;2024-01-10T03:12:34;366.92;;;169.10;;
39486;SDS011;25173;50.430;18.926;2024-01-10T03:15:37;400.75;;;188.18;;
39486;SDS011;25173;50.430;18.926;2024-01-10T03:18:37;442.98;;;204.43;;
39486;SDS011;25173;50.430;18.926;2024-01-10T03:21:38;485.40;;;220.85;;
39486;SDS011;25173;50.430;18.926;2024-01-10T03:24:38;429.80;;;197.48;;
39486;SDS011;25173;50.430;18.926;2024-01-10T03:27:39;425.63;;;195.55;;
39486;SDS011;25173;50.430;18.926;2024-01-10T03:30:40;405.90;;;187.65;;
39486;SDS011;25173;50.430;18.926;2024-01-10T03:33:40;381.55;;;170.77;;
39486;SDS011;25173;50.430;18.926;2024-01-10T03:36:41;329.42;;;155.00;;
39486;SDS011;25173;50.430;18.926;2024-01-10T03:39:41;331.27;;;153.40;;
39486;SDS011;25173;50.430;18.926;2024-01-10T03:42:42;311.92;;;145.18;;
39486;SDS011;25173;50.430;18.926;2024-01-10T03:45:42;356.67;;;158.32;;
39486;SDS011;25173;50.430;18.926;2024-01-10T03:48:44;392.58;;;177.32;;
39486;SDS011;25173;50.430;18.926;2024-01-10T03:51:48;371.63;;;173.45;;
39486;SDS011;25173;50.430;18.926;2024-01-10T03:54:48;355.58;;;164.25;;
39486;SDS011;25173;50.430;18.926;2024-01-10T03:57:49;362.73;;;172.13;;
39486;SDS011;25173;50.430;18.926;2024-01-10T04:00:49;359.77;;;168.10;;
39486;SDS011;25173;50.430;18.926;2024-01-10T04:03:50;354.55;;;164.10;;
39486;SDS011;25173;50.430;18.926;2024-01-10T04:06:51;353.15;;;158.77;;
39486;SDS011;25173;50.430;18.926;2024-01-10T04:09:52;345.67;;;156.23;;
39486;SDS011;25173;50.430;18.926;2024-01-10T04:12:53;330.63;;;154.15;;
39486;SDS011;25173;50.430;18.926;2024-01-10T04:15:53;318.90;;;152.00;;
39486;SDS011;25173;50.430;18.926;2024-01-10T04:18:54;317.08;;;145.07;;
39486;SDS011;25173;50.430;18.926;2024-01-10T04:21:54;327.95;;;156.23;;
39486;SDS011;25173;50.430;18.926;2024-01-10T04:24:59;303.60;;;140.98;;
39486;SDS011;25173;50.430;18.926;2024-01-10T04:28:00;336.17;;;166.93;;
39486;SDS011;25173;50.430;18.926;2024-01-10T04:31:02;332.27;;;158.32;;
39486;SDS011;25173;50.430;18.926;2024-01-10T04:34:02;308.38;;;142.90;;
39486;SDS011;25173;50.430;18.926;2024-01-10T04:37:03;345.23;;;165.95;;
39486;SDS011;25173;50.430;18.926;2024-01-10T04:40:04;332.33;;;155.70;;
39486;SDS011;25173;50.430;18.926;2024-01-10T04:43:05;320.35;;;148.65;;
39486;SDS011;25173;50.430;18.926;2024-01-10T04:46:06;336.38;;;153.18;;
39486;SDS011;25173;50.430;18.926;2024-01-10T04:49:06;307.65;;;142.45;;
39486;SDS011;25173;50.430;18.926;2024-01-10T04:52:07;294.55;;;135.63;;
39486;SDS011;25173;50.430;18.926;2024-01-10T04:55:08;436.75;;;228.85;;
39486;SDS011;25173;50.430;18.926;2024-01-10T04:58:08;315.02;;;148.95;;
39486;SDS011;25173;50.430;18.926;2024-01-10T05:01:09;281.65;;;131.07;;
39486;SDS011;25173;50.430;18.926;2024-01-10T05:04:10;318.00;;;152.70;;
39486;SDS011;25173;50.430;18.926;2024-01-10T05:07:10;314.02;;;147.63;;
39486;SDS011;25173;50.430;18.926;2024-01-10T05:10:11;312.38;;;152.75;;
39486;SDS011;25173;50.430;18.926;2024-01-10T05:13:14;293.52;;;140.43;;
39486;SDS011;25173;50.430;18.926;2024-01-10T05:16:16;332.73;;;165.57;;
39486;SDS011;25173;50.430;18.926;2024-01-10T05:19:17;298.77;;;144.52;;
39486;SDS011;25173;50.430;18.926;2024-01-10T05:22:18;284.55;;;136.10;;
39486;SDS011;25173;50.430;18.926;2024-01-10T05:25:18;319.45;;;153.43;;
39486;SDS011;25173;50.430;18.926;2024-01-10T05:28:19;326.85;;;156.73;;
39486;SDS011;25173;50.430;18.926;2024-01-10T05:31:20;313.13;;;148.43;;
39486;SDS011;25173;50.430;18.926;2024-01-10T05:34:20;299.90;;;142.52;;
39486;SDS011;25173;50.430;18.926;2024-01-10T05:37:21;279.75;;;135.30;;
39486;SDS011;25173;50.430;18.926;2024-01-10T05:40:22;281.80;;;134.40;;
39486;SDS011;25173;50.430;18.926;2024-01-10T05:43:23;286.63;;;137.15;;
39486;SDS011;25173;50.430;18.926;2024-01-10T05:46:23;281.70;;;134.95;;
39486;SDS011;25173;50.430;18.926;2024-01-10T05:49:24;275.98;;;128.43;;
39486;SDS011;25173;50.430;18.926;2024-01-10T05:52:24;262.42;;;123.72;;
39486;SDS011;25173;50.430;18.926;2024-01-10T05:55:25;247.55;;;119.75;;
39486;SDS011;25173;50.430;18.926;2024-01-10T05:58:26;237.18;;;115.05;;
39486;SDS011;25173;50.430;18.926;2024-01-10T06:01:27;249.35;;;118.32;;
39486;SDS011;25173;50.430;18.926;2024-01-10T06:04:27;242.80;;;116.82;;
39486;SDS011;25173;50.430;18.926;2024-01-10T06:07:30;255.13;;;120.63;;
39486;SDS011;25173;50.430;18.926;2024-01-10T06:10:31;233.93;;;115.10;;
39486;SDS011;25173;50.430;18.926;2024-01-10T06:13:32;239.85;;;114.65;;
39486;SDS011;25173;50.430;18.926;2024-01-10T06:16:32;271.60;;;128.65;;
39486;SDS011;25173;50.430;18.926;2024-01-10T06:19:33;246.30;;;119.55;;
39486;SDS011;25173;50.430;18.926;2024-01-10T06:22:34;251.95;;;117.25;;
39486;SDS011;25173;50.430;18.926;2024-01-10T06:25:34;282.73;;;142.65;;
39486;SDS011;25173;50.430;18.926;2024-01-10T06:28:35;281.20;;;139.23;;
39486;SDS011;25173;50.430;18.926;2024-01-10T06:31:35;273.13;;;130.65;;
39486;SDS011;25173;50.430;18.926;2024-01-10T06:34:36;369.90;;;182.05;;
39486;SDS011;25173;50.430;18.926;2024-01-10T06:37:37;338.52;;;165.55;;
39486;SDS011;25173;50.430;18.926;2024-01-10T06:40:38;335.52;;;168.63;;
39486;SDS011;25173;50.430;18.926;2024-01-10T06:43:39;316.13;;;153.95;;
39486;SDS011;25173;50.430;18.926;2024-01-10T06:46:40;278.15;;;134.40;;
39486;SDS011;25173;50.430;18.926;2024-01-10T06:49:41;272.25;;;131.25;;
39486;SDS011;25173;50.430;18.926;2024-01-10T06:52:41;258.42;;;126.85;;
39486;SDS011;25173;50.430;18.926;2024-01-10T06:55:42;258.55;;;131.32;;
39486;SDS011;25173;50.430;18.926;2024-01-10T06:58:42;257.05;;;130.30;;
39486;SDS011;25173;50.430;18.926;2024-01-10T07:01:45;274.33;;;133.27;;
39486;SDS011;25173;50.430;18.926;2024-01-10T07:04:47;271.13;;;131.07;;
39486;SDS011;25173;50.430;18.926;2024-01-10T07:07:48;269.92;;;129.35;;
39486;SDS011;25173;50.430;18.926;2024-01-10T07:10:49;317.05;;;155.48;;
39486;SDS011;25173;50.430;18.926;2024-01-10T07:13:50;397.02;;;203.07;;
39486;SDS011;25173;50.430;18.926;2024-01-10T07:16:51;406.02;;;199.65;;
39486;SDS011;25173;50.430;18.926;2024-01-10T07:19:52;412.70;;;198.55;;
39486;SDS011;25173;50.430;18.926;2024-01-10T07:22:52;400.77;;;192.15;;
39486;SDS011;25173;50.430;18.926;2024-01-10T07:25:53;373.70;;;186.18;;
39486;SDS011;25173;50.430;18.926;2024-01-10T07:28:54;369.13;;;179.00;;
39486;SDS011;25173;50.430;18.926;2024-01-10T07:31:54;307.67;;;151.43;;
39486;SDS011;25173;50.430;18.926;2024-01-10T07:34:55;300.17;;;153.23;;
39486;SDS011;25173;50.430;18.926;2024-01-10T07:37:55;266.08;;;138.55;;
39486;SDS011;25173;50.430;18.926;2024-01-10T07:40:56;278.50;;;142.27;;
39486;SDS011;25173;50.430;18.926;2024-01-10T07:43:59;263.63;;;136.65;;
39486;SDS011;25173;50.430;18.926;2024-01-10T07:46:59;266.58;;;134.05;;
39486;SDS011;25173;50.430;18.926;2024-01-10T07:50:01;261.48;;;130.77;;
39486;SDS011;25173;50.430;18.926;2024-01-10T07:53:03;267.95;;;133.40;;
39486;SDS011;25173;50.430;18.926;2024-01-10T07:56:04;284.45;;;139.82;;
39486;SDS011;25173;50.430;18.926;2024-01-10T07:59:05;286.10;;;143.60;;
39486;SDS011;25173;50.430;18.926;2024-01-10T08:02:05;272.80;;;141.25;;
39486;SDS011;25173;50.430;18.926;2024-01-10T08:05:10;287.48;;;141.38;;
39486;SDS011;25173;50.430;18.926;2024-01-10T08:08:11;279.42;;;144.43;;
39486;SDS011;25173;50.430;18.926;2024-01-10T08:11:13;282.95;;;139.73;;
39486;SDS011;25173;50.430;18.926;2024-01-10T08:14:14;282.17;;;143.38;;
39486;SDS011;25173;50.430;18.926;2024-01-10T08:17:18;334.10;;;164.23;;
39486;SDS011;25173;50.430;18.926;2024-01-10T08:20:44;279.20;;;138.43;;
39486;SDS011;25173;50.430;18.926;2024-01-10T08:23:45;279.70;;;139.75;;
39486;SDS011;25173;50.430;18.926;2024-01-10T08:26:46;297.17;;;153.48;;
39486;SDS011;25173;50.430;18.926;2024-01-10T08:29:52;278.75;;;144.20;;
39486;SDS011;25173;50.430;18.926;2024-01-10T08:32:52;267.77;;;133.07;;
39486;SDS011;25173;50.430;18.926;2024-01-10T08:35:53;253.35;;;132.85;;
39486;SDS011;25173;50.430;18.926;2024-01-10T08:38:54;240.95;;;120.32;;
39486;SDS011;25173;50.430;18.926;2024-01-10T08:41:55;240.73;;;121.63;;
39486;SDS011;25173;50.430;18.926;2024-01-10T08:44:55;240.85;;;119.35;;
39486;SDS011;25173;50.430;18.926;2024-01-10T08:47:56;242.57;;;116.55;;
39486;SDS011;25173;50.430;18.926;2024-01-10T08:50:58;236.48;;;123.13;;
39486;SDS011;25173;50.430;18.926;2024-01-10T08:53:59;234.43;;;120.00;;
39486;SDS011;25173;50.430;18.926;2024-01-10T08:57:00;244.48;;;126.13;;
39486;SDS011;25173;50.430;18.926;2024-01-10T09:00:00;263.63;;;130.35;;
39486;SDS011;25173;50.430;18.926;2024-01-10T09:03:01;266.25;;;132.65;;
39486;SDS011;25173;50.430;18.926;2024-01-10T09:06:03;278.20;;;133.40;;
39486;SDS011;25173;50.430;18.926;2024-01-10T09:09:04;278.85;;;141.27;;
39486;SDS011;25173;50.430;18.926;2024-01-10T09:12:06;266.50;;;134.05;;
39486;SDS011;25173;50.430;18.926;2024-01-10T09:15:07;254.65;;;125.63;;
39486;SDS011;25173;50.430;18.926;2024-01-10T09:18:13;241.60;;;122.70;;
39486;SDS011;25173;50.430;18.926;2024-01-10T09:21:13;238.98;;;119.28;;
39486;SDS011;25173;50.430;18.926;2024-01-10T09:24:16;233.05;;;115.25;;
39486;SDS011;25173;50.430;18.926;2024-01-10T09:27:17;232.38;;;109.22;;
39486;SDS011;25173;50.430;18.926;2024-01-10T09:30:17;217.23;;;112.18;;
39486;SDS011;25173;50.430;18.926;2024-01-10T09:33:19;213.68;;;108.25;;
39486;SDS011;25173;50.430;18.926;2024-01-10T09:36:19;214.82;;;107.53;;
39486;SDS011;25173;50.430;18.926;2024-01-10T09:39:20;201.02;;;105.45;;
39486;SDS011;25173;50.430;18.926;2024-01-10T09:42:22;198.07;;;100.15;;
39486;SDS011;25173;50.430;18.926;2024-01-10T09:45:25;193.50;;;96.47;;
39486;SDS011;25173;50.430;18.926;2024-01-10T09:48:27;199.20;;;100.65;;
39486;SDS011;25173;50.430;18.926;2024-01-10T09:51:28;195.82;;;98.85;;
39486;SDS011;25173;50.430;18.926;2024-01-10T09:54:31;204.02;;;101.20;;
39486;SDS011;25173;50.430;18.926;2024-01-10T09:57:34;201.77;;;100.93;;
39486;SDS011;25173;50.430;18.926;2024-01-10T10:00:38;203.55;;;104.07;;
39486;SDS011;25173;50.430;18.926;2024-01-10T10:03:40;208.30;;;101.00;;
39486;SDS011;25173;50.430;18.926;2024-01-10T10:09:46;219.15;;;109.22;;
39486;SDS011;25173;50.430;18.926;2024-01-10T10:12:47;243.02;;;121.50;;
39486;SDS011;25173;50.430;18.926;2024-01-10T10:16:02;263.60;;;126.70;;
39486;SDS011;25173;50.430;18.926;2024-01-10T10:19:03;293.35;;;132.13;;
39486;SDS011;25173;50.430;18.926;2024-01-10T10:22:10;264.73;;;120.75;;
39486;SDS011;25173;50.430;18.926;2024-01-10T10:25:15;224.40;;;107.68;;
39486;SDS011;25173;50.430;18.926;2024-01-10T10:28:16;211.90;;;103.55;;
39486;SDS011;25173;50.430;18.926;2024-01-10T10:31:17;213.60;;;104.07;;
39486;SDS011;25173;50.430;18.926;2024-01-10T10:34:20;192.60;;;102.28;;
39486;SDS011;25173;50.430;18.926;2024-01-10T10:37:22;202.55;;;101.05;;
39486;SDS011;25173;50.430;18.926;2024-01-10T10:40:23;223.35;;;107.93;;
39486;SDS011;25173;50.430;18.926;2024-01-10T10:43:24;224.85;;;106.43;;
39486;SDS011;25173;50.430;18.926;2024-01-10T10:46:26;234.88;;;114.15;;
39486;SDS011;25173;50.430;18.926;2024-01-10T10:49:28;207.90;;;107.32;;
39486;SDS011;25173;50.430;18.926;2024-01-10T10:52:33;207.68;;;104.15;;
39486;SDS011;25173;50.430;18.926;2024-01-10T10:55:34;211.45;;;100.00;;
39486;SDS011;25173;50.430;18.926;2024-01-10T10:58:42;201.27;;;97.78;;
39486;SDS011;25173;50.430;18.926;2024-01-10T11:01:44;203.25;;;96.07;;
39486;SDS011;25173;50.430;18.926;2024-01-10T11:04:46;191.00;;;95.03;;
39486;SDS011;25173;50.430;18.926;2024-01-10T11:07:48;170.82;;;90.22;;
39486;SDS011;25173;50.430;18.926;2024-01-10T11:10:49;183.75;;;90.97;;
39486;SDS011;25173;50.430;18.926;2024-01-10T11:14:07;176.27;;;87.85;;
39486;SDS011;25173;50.430;18.926;2024-01-10T11:24:01;179.43;;;93.40;;
39486;SDS011;25173;50.430;18.926;2024-01-10T11:27:21;164.85;;;89.47;;
39486;SDS011;25173;50.430;18.926;2024-01-10T11:33:36;184.15;;;94.18;;
39486;SDS011;25173;50.430;18.926;2024-01-10T11:36:44;183.25;;;94.78;;
39486;SDS011;25173;50.430;18.926;2024-01-10T11:40:12;184.07;;;97.88;;
39486;SDS011;25173;50.430;18.926;2024-01-10T11:43:13;191.52;;;97.93;;
39486;SDS011;25173;50.430;18.926;2024-01-10T11:46:14;196.55;;;100.57;;
39486;SDS011;25173;50.430;18.926;2024-01-10T11:49:16;196.18;;;102.45;;
39486;SDS011;25173;50.430;18.926;2024-01-10T11:52:19;207.35;;;106.32;;
39486;SDS011;25173;50.430;18.926;2024-01-10T11:55:46;209.20;;;103.88;;
39486;SDS011;25173;50.430;18.926;2024-01-10T11:58:54;208.23;;;104.25;;
39486;SDS011;25173;50.430;18.926;2024-01-10T12:02:03;205.02;;;107.25;;
39486;SDS011;25173;50.430;18.926;2024-01-10T12:05:04;200.93;;;105.65;;
39486;SDS011;25173;50.430;18.926;2024-01-10T12:08:10;208.20;;;108.80;;
39486;SDS011;25173;50.430;18.926;2024-01-10T12:11:20;216.02;;;113.00;;
39486;SDS011;25173;50.430;18.926;2024-01-10T12:14:21;204.15;;;109.85;;
39486;SDS011;25173;50.430;18.926;2024-01-10T12:17:24;199.00;;;106.82;;
39486;SDS011;25173;50.430;18.926;2024-01-10T12:20:27;218.43;;;112.45;;
39486;SDS011;25173;50.430;18.926;2024-01-10T12:23:28;207.25;;;113.82;;
39486;SDS011;25173;50.430;18.926;2024-01-10T12:26:31;206.75;;;108.85;;
39486;SDS011;25173;50.430;18.926;2024-01-10T12:29:33;207.65;;;109.95;;
39486;SDS011;25173;50.430;18.926;2024-01-10T12:32:33;219.40;;;114.65;;
39486;SDS011;25173;50.430;18.926;2024-01-10T12:35:34;251.30;;;138.02;;
39486;SDS011;25173;50.430;18.926;2024-01-10T12:38:35;243.00;;;130.23;;
39486;SDS011;25173;50.430;18.926;2024-01-10T12:41:36;315.92;;;159.60;;
39486;SDS011;25173;50.430;18.926;2024-01-10T12:44:37;253.88;;;133.82;;
39486;SDS011;25173;50.430;18.926;2024-01-10T12:47:37;215.90;;;115.25;;
39486;SDS011;25173;50.430;18.926;2024-01-10T12:50:40;218.40;;;114.95;;
39486;SDS011;25173;50.430;18.926;2024-01-10T12:53:42;226.15;;;116.68;;
39486;SDS011;25173;50.430;18.926;2024-01-10T12:56:43;235.70;;;122.05;;
39486;SDS011;25173;50.430;18.926;2024-01-10T12:59:44;224.98;;;119.38;;
39486;SDS011;25173;50.430;18.926;2024-01-10T13:02:45;228.70;;;118.47;;
39486;SDS011;25173;50.430;18.926;2024-01-10T13:05:47;228.15;;;119.47;;
39486;SDS011;25173;50.430;18.926;2024-01-10T13:08:48;222.90;;;122.88;;
39486;SDS011;25173;50.430;18.926;2024-01-10T13:11:49;232.20;;;124.10;;
39486;SDS011;25173;50.430;18.926;2024-01-10T13:14:54;240.63;;;128.45;;
39486;SDS011;25173;50.430;18.926;2024-01-10T13:18:01;231.57;;;121.47;;
39486;SDS011;25173;50.430;18.926;2024-01-10T13:21:03;235.18;;;121.85;;
39486;SDS011;25173;50.430;18.926;2024-01-10T13:24:05;232.93;;;124.55;;
39486;SDS011;25173;50.430;18.926;2024-01-10T13:27:06;228.40;;;121.80;;
39486;SDS011;25173;50.430;18.926;2024-01-10T13:30:10;224.70;;;122.85;;
39486;SDS011;25173;50.430;18.926;2024-01-10T13:33:12;230.38;;;125.63;;
39486;SDS011;25173;50.430;18.926;2024-01-10T13:36:13;236.02;;;126.68;;
39486;SDS011;25173;50.430;18.926;2024-01-10T13:39:14;232.23;;;124.18;;
39486;SDS011;25173;50.430;18.926;2024-01-10T13:42:15;232.15;;;123.50;;
39486;SDS011;25173;50.430;18.926;2024-01-10T13:45:16;226.60;;;121.00;;
39486;SDS011;25173;50.430;18.926;2024-01-10T13:48:17;214.07;;;116.47;;
39486;SDS011;25173;50.430;18.926;2024-01-10T13:51:18;210.02;;;114.93;;
39486;SDS011;25173;50.430;18.926;2024-01-10T13:54:18;207.77;;;113.03;;
39486;SDS011;25173;50.430;18.926;2024-01-10T13:57:19;210.98;;;113.03;;
39486;SDS011;25173;50.430;18.926;2024-01-10T14:00:20;210.68;;;112.00;;
39486;SDS011;25173;50.430;18.926;2024-01-10T14:03:21;202.10;;;110.43;;
39486;SDS011;25173;50.430;18.926;2024-01-10T14:06:21;204.77;;;114.10;;
39486;SDS011;25173;50.430;18.926;2024-01-10T14:09:22;218.27;;;115.18;;
39486;SDS011;25173;50.430;18.926;2024-01-10T14:12:24;203.07;;;110.80;;
39486;SDS011;25173;50.430;18.926;2024-01-10T14:15:31;204.90;;;108.40;;
39486;SDS011;25173;50.430;18.926;2024-01-10T14:18:34;207.35;;;111.45;;
39486;SDS011;25173;50.430;18.926;2024-01-10T14:21:35;199.23;;;113.88;;
39486;SDS011;25173;50.430;18.926;2024-01-10T14:24:36;224.93;;;120.22;;
39486;SDS011;25173;50.430;18.926;2024-01-10T14:27:36;223.30;;;124.75;;
39486;SDS011;25173;50.430;18.926;2024-01-10T14:30:39;244.10;;;130.48;;
39486;SDS011;25173;50.430;18.926;2024-01-10T14:33:40;252.60;;;131.35;;
39486;SDS011;25173;50.430;18.926;2024-01-10T14:36:41;267.88;;;140.18;;
39486;SDS011;25173;50.430;18.926;2024-01-10T14:39:42;350.75;;;179.43;;
39486;SDS011;25173;50.430;18.926;2024-01-10T14:42:42;303.05;;;157.82;;
39486;SDS011;25173;50.430;18.926;2024-01-10T14:45:43;349.48;;;181.10;;
39486;SDS011;25173;50.430;18.926;2024-01-10T14:48:44;361.85;;;190.98;;
39486;SDS011;25173;50.430;18.926;2024-01-10T14:51:45;368.98;;;190.55;;
39486;SDS011;25173;50.430;18.926;2024-01-10T14:54:47;541.10;;;276.50;;
39486;SDS011;25173;50.430;18.926;2024-01-10T14:57:47;493.33;;;250.85;;
39486;SDS011;25173;50.430;18.926;2024-01-10T15:00:48;436.40;;;226.77;;
39486;SDS011;25173;50.430;18.926;2024-01-10T15:03:48;473.30;;;242.02;;
39486;SDS011;25173;50.430;18.926;2024-01-10T15:06:52;480.88;;;249.05;;
39486;SDS011;25173;50.430;18.926;2024-01-10T15:09:52;509.55;;;270.08;;
39486;SDS011;25173;50.430;18.926;2024-01-10T15:12:53;531.33;;;275.05;;
39486;SDS011;25173;50.430;18.926;2024-01-10T15:15:54;559.40;;;295.83;;
39486;SDS011;25173;50.430;18.926;2024-01-10T15:18:54;512.95;;;270.92;;
39486;SDS011;25173;50.430;18.926;2024-01-10T15:21:55;602.65;;;340.65;;
39486;SDS011;25173;50.430;18.926;2024-01-10T15:24:57;592.67;;;313.15;;
39486;SDS011;25173;50.430;18.926;2024-01-10T15:27:59;642.95;;;368.75;;
39486;SDS011;25173;50.430;18.926;2024-01-10T15:31:00;727.47;;;385.15;;
39486;SDS011;25173;50.430;18.926;2024-01-10T15:34:02;656.17;;;368.67;;
39486;SDS011;25173;50.430;18.926;2024-01-10T15:37:03;679.75;;;387.33;;
39486;SDS011;25173;50.430;18.926;2024-01-10T15:40:07;642.55;;;374.92;;
39486;SDS011;25173;50.430;18.926;2024-01-10T15:43:09;709.28;;;415.92;;
39486;SDS011;25173;50.430;18.926;2024-01-10T15:46:09;632.20;;;347.60;;
39486;SDS011;25173;50.430;18.926;2024-01-10T15:49:18;584.90;;;337.70;;
39486;SDS011;25173;50.430;18.926;2024-01-10T15:52:18;586.63;;;350.38;;
39486;SDS011;25173;50.430;18.926;2024-01-10T15:55:26;675.60;;;414.88;;
39486;SDS011;25173;50.430;18.926;2024-01-10T15:58:27;1074.28;;;582.53;;
39486;SDS011;25173;50.430;18.926;2024-01-10T16:01:28;902.75;;;479.38;;
39486;SDS011;25173;50.430;18.926;2024-01-10T16:04:28;860.28;;;473.48;;
39486;SDS011;25173;50.430;18.926;2024-01-10T16:07:29;709.30;;;415.27;;
39486;SDS011;25173;50.430;18.926;2024-01-10T16:10:30;1137.68;;;609.97;;
39486;SDS011;25173;50.430;18.926;2024-01-10T16:13:31;962.70;;;544.22;;
39486;SDS011;25173;50.430;18.926;2024-01-10T16:16:31;933.13;;;529.55;;
39486;SDS011;25173;50.430;18.926;2024-01-10T16:19:33;926.83;;;531.47;;
39486;SDS011;25173;50.430;18.926;2024-01-10T16:22:33;838.63;;;486.63;;
39486;SDS011;25173;50.430;18.926;2024-01-10T16:25:34;837.00;;;484.15;;
39486;SDS011;25173;50.430;18.926;2024-01-10T16:28:34;732.33;;;414.73;;
39486;SDS011;25173;50.430;18.926;2024-01-10T16:31:35;701.60;;;395.45;;
39486;SDS011;25173;50.430;18.926;2024-01-10T16:34:37;767.58;;;430.95;;
39486;SDS011;25173;50.430;18.926;2024-01-10T16:37:37;662.28;;;370.73;;
39486;SDS011;25173;50.430;18.926;2024-01-10T16:40:38;532.50;;;280.13;;
39486;SDS011;25173;50.430;18.926;2024-01-10T16:43:39;487.98;;;250.45;;
39486;SDS011;25173;50.430;18.926;2024-01-10T16:46:40;524.67;;;264.73;;
39486;SDS011;25173;50.430;18.926;2024-01-10T16:49:40;872.67;;;479.65;;
39486;SDS011;25173;50.430;18.926;2024-01-10T16:52:41;682.45;;;372.42;;
39486;SDS011;25173;50.430;18.926;2024-01-10T16:55:41;725.35;;;391.90;;
39486;SDS011;25173;50.430;18.926;2024-01-10T16:58:42;756.80;;;404.40;;
39486;SDS011;25173;50.430;18.926;2024-01-10T17:01:43;912.63;;;498.02;;
39486;SDS011;25173;50.430;18.926;2024-01-10T17:04:43;976.33;;;532.47;;
39486;SDS011;25173;50.430;18.926;2024-01-10T17:07:44;887.45;;;472.58;;
39486;SDS011;25173;50.430;18.926;2024-01-10T17:10:45;794.92;;;411.98;;
39486;SDS011;25173;50.430;18.926;2024-01-10T17:13:45;809.88;;;430.52;;